Will a cell phone ticket effect my car insurance rate?

SloanTran8529 | 2022.02.20 12:49 | 조회 7
"I was in a car accident the other day"Insurers are currently anticipating significant medical health insurance cost raises next year on account of Obamacare"I'm gonna get yourself a vehicle quickly so I simply wished to study others impression about what auto insurance they believe is the best and Iam having difficulty buying a defined motor insurance business to ensure my car
twitter facebook me2day 요즘
1,427,574개(29635/71379페이지)
LECTURE
번호 제목 글쓴이 조회 날짜
834894 Fewer Calories, More Train For Weight Lo AdairWilkinson1016 11 2022.02.20 13:01
834893 If You Don't Minecraft Server Address No DjurhuusSkov5827 13 2022.02.20 13:00
834892 Lịch Thi Đấu Bóng Đá Cup C1 Mùa Giải 202 MelchiorsenHolland4495 16 2022.02.20 13:00
834891 Online Slots Rules--There Are Only Three PridgenCantu5199 22 2022.02.20 13:00
834890 Black Camouflaged Poker Spade T-shirt cr KeithShoemaker0522 10 2022.02.20 13:00
834889 Have Questions About Chiropractic care C McClellanMahmoud5058 12 2022.02.20 12:59
834888 Báo Bóng Đá DiazFoldager3199 9 2022.02.20 12:59
834887 It Is Our Job To Coach Yourself On Web M BrinkValentine2850 6 2022.02.20 12:59
834886 79 Lat Temu Rozpoczęła Się II Wojna świa 사진 BrandstrupAllen3833 8 2022.02.20 12:59
834885 Bet On Sports - How To Place Bets On Spo HelboHarboe4248 12 2022.02.20 12:59
834884 Boost Your Human Hair Wigs With The Foll EngelSchmidt2892 7 2022.02.20 12:59
834883 What you ought to Know When Searching Fo AxelsenChristiansen9282 10 2022.02.20 12:58
834882 Chi Tiết Về 90ptv 90 Phút Television Trự WindButcher6202 16 2022.02.20 12:58
834881 Using Blackjack Strategy Card To Get - T KellerKhan7121 7 2022.02.20 12:58
834880 If You Wish Speedy Recommendations Regar PilegaardHarper4305 11 2022.02.20 12:58
834879 Learn How To Win Online Poker JosephsenPrince1014 14 2022.02.20 12:58
834878 Online Video Marketing Can Help You Loca FeldmanErichsen8038 12 2022.02.20 12:57
834877 Online Poker Strategy That Works For Any CollinsLangley0885 6 2022.02.20 12:57
834876 Situs Judi Slots Online Terbaik yang Sem HunterHickey7933 7 2022.02.20 12:57
834875 Promotion Recommendations It Is Possible PaulGlover6126 9 2022.02.20 12:57